sensor_id;sensor_type;location;lat;lon;timestamp;temperature;humidity
14057;DHT22;7103;54.300;10.180;2023-10-19T00:02:15;8.60;1.00
14057;DHT22;7103;54.300;10.180;2023-10-19T00:04:46;8.60;1.00
14057;DHT22;7103;54.300;10.180;2023-10-19T00:07:13;8.70;1.00
14057;DHT22;7103;54.300;10.180;2023-10-19T00:09:43;8.60;1.00
14057;DHT22;7103;54.300;10.180;2023-10-19T00:12:14;8.70;1.00
14057;DHT22;7103;54.300;10.180;2023-10-19T00:14:43;8.70;1.00
14057;DHT22;7103;54.300;10.180;2023-10-19T00:17:10;8.70;1.00
14057;DHT22;7103;54.300;10.180;2023-10-19T00:19:38;8.70;1.00
14057;DHT22;7103;54.300;10.180;2023-10-19T00:22:25;8.70;1.00
14057;DHT22;7103;54.300;10.180;2023-10-19T00:24:52;8.60;1.00
14057;DHT22;7103;54.300;10.180;2023-10-19T00:27:19;8.70;1.00
14057;DHT22;7103;54.300;10.180;2023-10-19T00:29:49;8.70;1.00
14057;DHT22;7103;54.300;10.180;2023-10-19T00:32:16;8.70;1.00
14057;DHT22;7103;54.300;10.180;2023-10-19T00:34:45;8.80;1.00
14057;DHT22;7103;54.300;10.180;2023-10-19T00:37:19;8.80;1.00
14057;DHT22;7103;54.300;10.180;2023-10-19T00:39:55;8.80;1.00
14057;DHT22;7103;54.300;10.180;2023-10-19T00:42:23;8.80;1.00
14057;DHT22;7103;54.300;10.180;2023-10-19T00:44:52;8.80;1.00
14057;DHT22;7103;54.300;10.180;2023-10-19T00:47:27;8.80;1.00
14057;DHT22;7103;54.300;10.180;2023-10-19T00:50:02;8.80;1.00
14057;DHT22;7103;54.300;10.180;2023-10-19T00:52:32;8.80;1.00
14057;DHT22;7103;54.300;10.180;2023-10-19T00:55:07;8.80;1.00
14057;DHT22;7103;54.300;10.180;2023-10-19T00:57:35;8.70;1.00
14057;DHT22;7103;54.300;10.180;2023-10-19T01:00:04;8.80;1.00
14057;DHT22;7103;54.300;10.180;2023-10-19T01:02:48;8.80;1.00
14057;DHT22;7103;54.300;10.180;2023-10-19T01:05:18;8.80;1.00
14057;DHT22;7103;54.300;10.180;2023-10-19T01:07:48;8.80;1.00
14057;DHT22;7103;54.300;10.180;2023-10-19T01:10:24;9.00;1.00
14057;DHT22;7103;54.300;10.180;2023-10-19T01:12:51;8.90;1.00
14057;DHT22;7103;54.300;10.180;2023-10-19T01:15:19;8.90;1.00
14057;DHT22;7103;54.300;10.180;2023-10-19T01:17:58;8.90;1.00
14057;DHT22;7103;54.300;10.180;2023-10-19T01:20:27;8.90;1.00
14057;DHT22;7103;54.300;10.180;2023-10-19T01:23:02;8.90;1.00
14057;DHT22;7103;54.300;10.180;2023-10-19T01:28:13;8.90;1.00
14057;DHT22;7103;54.300;10.180;2023-10-19T01:30:45;8.90;1.00
14057;DHT22;7103;54.300;10.180;2023-10-19T01:33:12;9.00;1.00
14057;DHT22;7103;54.300;10.180;2023-10-19T01:35:40;9.00;1.00
14057;DHT22;7103;54.300;10.180;2023-10-19T01:38:27;8.90;1.00
14057;DHT22;7103;54.300;10.180;2023-10-19T01:40:58;8.90;1.00
14057;DHT22;7103;54.300;10.180;2023-10-19T01:43:29;8.90;1.00
14057;DHT22;7103;54.300;10.180;2023-10-19T01:46:00;9.00;1.00
14057;DHT22;7103;54.300;10.180;2023-10-19T01:48:42;9.00;1.00
14057;DHT22;7103;54.300;10.180;2023-10-19T01:51:11;9.00;1.00
14057;DHT22;7103;54.300;10.180;2023-10-19T01:53:39;9.00;1.00
14057;DHT22;7103;54.300;10.180;2023-10-19T01:56:07;8.90;1.00
14057;DHT22;7103;54.300;10.180;2023-10-19T01:58:37;8.90;1.00
14057;DHT22;7103;54.300;10.180;2023-10-19T02:01:04;9.00;1.00
14057;DHT22;7103;54.300;10.180;2023-10-19T02:03:42;9.00;1.00
14057;DHT22;7103;54.300;10.180;2023-10-19T02:06:11;8.90;1.00
14057;DHT22;7103;54.300;10.180;2023-10-19T02:08:52;8.90;1.00
14057;DHT22;7103;54.300;10.180;2023-10-19T02:11:24;8.90;1.00
14057;DHT22;7103;54.300;10.180;2023-10-19T02:13:56;9.00;1.00
14057;DHT22;7103;54.300;10.180;2023-10-19T02:16:27;9.00;1.00
14057;DHT22;7103;54.300;10.180;2023-10-19T02:18:56;9.00;1.00
14057;DHT22;7103;54.300;10.180;2023-10-19T02:21:23;9.10;1.00
14057;DHT22;7103;54.300;10.180;2023-10-19T02:23:54;9.10;1.00
14057;DHT22;7103;54.300;10.180;2023-10-19T02:26:21;9.00;1.00
14057;DHT22;7103;54.300;10.180;2023-10-19T02:28:49;9.10;1.00
14057;DHT22;7103;54.300;10.180;2023-10-19T02:31:20;9.10;1.00
14057;DHT22;7103;54.300;10.180;2023-10-19T02:33:53;9.10;1.00
14057;DHT22;7103;54.300;10.180;2023-10-19T02:36:30;9.20;1.00
14057;DHT22;7103;54.300;10.180;2023-10-19T02:38:59;9.10;1.00
14057;DHT22;7103;54.300;10.180;2023-10-19T02:41:27;9.10;1.00
14057;DHT22;7103;54.300;10.180;2023-10-19T02:43:55;9.10;1.00
14057;DHT22;7103;54.300;10.180;2023-10-19T02:46:32;9.20;1.00
14057;DHT22;7103;54.300;10.180;2023-10-19T02:49:06;9.10;1.00
14057;DHT22;7103;54.300;10.180;2023-10-19T02:51:53;9.10;1.00
14057;DHT22;7103;54.300;10.180;2023-10-19T02:54:22;9.20;1.00
14057;DHT22;7103;54.300;10.180;2023-10-19T02:56:54;9.20;1.00
14057;DHT22;7103;54.300;10.180;2023-10-19T02:59:25;9.10;1.00
14057;DHT22;7103;54.300;10.180;2023-10-19T03:01:53;9.20;1.00
14057;DHT22;7103;54.300;10.180;2023-10-19T03:04:44;9.10;1.00
14057;DHT22;7103;54.300;10.180;2023-10-19T03:07:13;9.20;1.00
14057;DHT22;7103;54.300;10.180;2023-10-19T03:09:40;9.20;1.00
14057;DHT22;7103;54.300;10.180;2023-10-19T03:12:15;9.20;1.00
14057;DHT22;7103;54.300;10.180;2023-10-19T03:14:44;9.20;1.00
14057;DHT22;7103;54.300;10.180;2023-10-19T03:17:15;9.20;1.00
14057;DHT22;7103;54.300;10.180;2023-10-19T03:19:43;9.20;1.00
14057;DHT22;7103;54.300;10.180;2023-10-19T03:22:10;9.30;1.00
14057;DHT22;7103;54.300;10.180;2023-10-19T03:24:39;9.30;1.00
14057;DHT22;7103;54.300;10.180;2023-10-19T03:27:12;9.40;1.00
14057;DHT22;7103;54.300;10.180;2023-10-19T03:29:44;9.40;1.00
14057;DHT22;7103;54.300;10.180;2023-10-19T03:32:15;9.40;1.00
14057;DHT22;7103;54.300;10.180;2023-10-19T03:34:48;9.40;1.00
14057;DHT22;7103;54.300;10.180;2023-10-19T03:37:17;9.30;1.00
14057;DHT22;7103;54.300;10.180;2023-10-19T03:39:48;9.50;1.00
14057;DHT22;7103;54.300;10.180;2023-10-19T03:42:15;9.40;1.00
14057;DHT22;7103;54.300;10.180;2023-10-19T03:44:43;9.40;1.00
14057;DHT22;7103;54.300;10.180;2023-10-19T03:47:17;9.40;1.00
14057;DHT22;7103;54.300;10.180;2023-10-19T03:49:48;9.40;1.00
14057;DHT22;7103;54.300;10.180;2023-10-19T03:52:17;9.40;1.00
14057;DHT22;7103;54.300;10.180;2023-10-19T03:54:45;9.40;1.00
14057;DHT22;7103;54.300;10.180;2023-10-19T03:57:15;9.40;1.00
14057;DHT22;7103;54.300;10.180;2023-10-19T03:59:47;9.50;1.00
14057;DHT22;7103;54.300;10.180;2023-10-19T04:02:20;9.40;1.00
14057;DHT22;7103;54.300;10.180;2023-10-19T04:04:56;9.40;1.00
14057;DHT22;7103;54.300;10.180;2023-10-19T04:07:24;9.50;1.00
14057;DHT22;7103;54.300;10.180;2023-10-19T04:09:58;9.40;1.00
14057;DHT22;7103;54.300;10.180;2023-10-19T04:12:36;9.40;1.00
14057;DHT22;7103;54.300;10.180;2023-10-19T04:15:05;9.40;1.00
14057;DHT22;7103;54.300;10.180;2023-10-19T04:17:48;9.40;1.00
14057;DHT22;7103;54.300;10.180;2023-10-19T04:20:17;9.50;1.00
14057;DHT22;7103;54.300;10.180;2023-10-19T04:22:49;9.50;1.00
14057;DHT22;7103;54.300;10.180;2023-10-19T04:25:18;9.50;1.00
14057;DHT22;7103;54.300;10.180;2023-10-19T04:27:56;9.50;1.00
14057;DHT22;7103;54.300;10.180;2023-10-19T04:30:24;9.60;1.00
14057;DHT22;7103;54.300;10.180;2023-10-19T04:32:51;9.50;1.00
14057;DHT22;7103;54.300;10.180;2023-10-19T04:35:19;9.50;1.00
14057;DHT22;7103;54.300;10.180;2023-10-19T04:37:51;9.50;1.00
14057;DHT22;7103;54.300;10.180;2023-10-19T04:40:20;9.50;1.00
14057;DHT22;7103;54.300;10.180;2023-10-19T04:42:50;9.50;1.00
14057;DHT22;7103;54.300;10.180;2023-10-19T04:45:17;9.60;1.00
14057;DHT22;7103;54.300;10.180;2023-10-19T04:47:44;9.60;1.00
14057;DHT22;7103;54.300;10.180;2023-10-19T04:50:11;9.60;1.00
14057;DHT22;7103;54.300;10.180;2023-10-19T04:52:38;9.50;1.00
14057;DHT22;7103;54.300;10.180;2023-10-19T04:55:06;9.60;1.00
14057;DHT22;7103;54.300;10.180;2023-10-19T04:57:33;9.50;1.00
14057;DHT22;7103;54.300;10.180;2023-10-19T05:00:00;9.50;1.00
14057;DHT22;7103;54.300;10.180;2023-10-19T05:02:29;9.50;1.00
14057;DHT22;7103;54.300;10.180;2023-10-19T05:04:56;9.50;1.00
14057;DHT22;7103;54.300;10.180;2023-10-19T05:07:23;9.60;1.00
14057;DHT22;7103;54.300;10.180;2023-10-19T05:09:50;9.70;1.00
14057;DHT22;7103;54.300;10.180;2023-10-19T05:12:17;9.60;1.00
14057;DHT22;7103;54.300;10.180;2023-10-19T05:14:45;9.60;1.00
14057;DHT22;7103;54.300;10.180;2023-10-19T05:17:12;9.60;1.00
14057;DHT22;7103;54.300;10.180;2023-10-19T05:19:40;9.50;1.00
14057;DHT22;7103;54.300;10.180;2023-10-19T05:22:08;9.50;1.00
14057;DHT22;7103;54.300;10.180;2023-10-19T05:24:36;9.50;1.00
14057;DHT22;7103;54.300;10.180;2023-10-19T05:27:03;9.50;1.00
14057;DHT22;7103;54.300;10.180;2023-10-19T05:29:33;9.50;1.00
14057;DHT22;7103;54.300;10.180;2023-10-19T05:32:00;9.50;1.00
14057;DHT22;7103;54.300;10.180;2023-10-19T05:34:29;9.50;1.00
14057;DHT22;7103;54.300;10.180;2023-10-19T05:36:56;9.60;1.00
14057;DHT22;7103;54.300;10.180;2023-10-19T05:39:26;9.60;1.00
14057;DHT22;7103;54.300;10.180;2023-10-19T05:41:55;9.50;1.00
14057;DHT22;7103;54.300;10.180;2023-10-19T05:44:22;9.50;1.00
14057;DHT22;7103;54.300;10.180;2023-10-19T05:46:52;9.60;1.00
14057;DHT22;7103;54.300;10.180;2023-10-19T05:49:19;9.50;1.00
14057;DHT22;7103;54.300;10.180;2023-10-19T05:51:46;9.60;1.00
14057;DHT22;7103;54.300;10.180;2023-10-19T05:54:13;9.60;1.00
14057;DHT22;7103;54.300;10.180;2023-10-19T05:56:40;9.60;1.00
14057;DHT22;7103;54.300;10.180;2023-10-19T05:59:07;9.60;1.00
14057;DHT22;7103;54.300;10.180;2023-10-19T06:01:38;9.60;1.00
14057;DHT22;7103;54.300;10.180;2023-10-19T06:04:05;9.60;1.00
14057;DHT22;7103;54.300;10.180;2023-10-19T06:06:32;9.60;1.00
14057;DHT22;7103;54.300;10.180;2023-10-19T06:08:59;9.60;1.00
14057;DHT22;7103;54.300;10.180;2023-10-19T06:11:28;9.60;1.00
14057;DHT22;7103;54.300;10.180;2023-10-19T06:13:59;9.50;1.00
14057;DHT22;7103;54.300;10.180;2023-10-19T06:16:26;9.50;1.00
14057;DHT22;7103;54.300;10.180;2023-10-19T06:18:55;9.50;1.00
14057;DHT22;7103;54.300;10.180;2023-10-19T06:21:22;9.50;1.00
14057;DHT22;7103;54.300;10.180;2023-10-19T06:23:50;9.50;1.00
14057;DHT22;7103;54.300;10.180;2023-10-19T06:26:19;9.50;1.00
14057;DHT22;7103;54.300;10.180;2023-10-19T06:28:46;9.60;1.00
14057;DHT22;7103;54.300;10.180;2023-10-19T06:31:13;9.60;1.00
14057;DHT22;7103;54.300;10.180;2023-10-19T06:33:41;9.70;1.00
14057;DHT22;7103;54.300;10.180;2023-10-19T06:36:09;9.60;1.00
14057;DHT22;7103;54.300;10.180;2023-10-19T06:38:35;9.60;1.00
14057;DHT22;7103;54.300;10.180;2023-10-19T06:41:13;9.70;1.00
14057;DHT22;7103;54.300;10.180;2023-10-19T06:43:40;9.60;1.00
14057;DHT22;7103;54.300;10.180;2023-10-19T06:46:08;9.60;1.00
14057;DHT22;7103;54.300;10.180;2023-10-19T06:48:39;9.60;1.00
14057;DHT22;7103;54.300;10.180;2023-10-19T06:51:07;9.60;1.00
14057;DHT22;7103;54.300;10.180;2023-10-19T06:53:34;9.60;1.00
14057;DHT22;7103;54.300;10.180;2023-10-19T06:56:01;9.70;1.00
14057;DHT22;7103;54.300;10.180;2023-10-19T06:58:28;9.70;1.00
14057;DHT22;7103;54.300;10.180;2023-10-19T07:00:55;9.70;1.00
14057;DHT22;7103;54.300;10.180;2023-10-19T07:03:32;9.60;1.00
14057;DHT22;7103;54.300;10.180;2023-10-19T07:05:59;9.70;1.00
14057;DHT22;7103;54.300;10.180;2023-10-19T07:08:26;9.70;1.00
14057;DHT22;7103;54.300;10.180;2023-10-19T07:10:54;9.70;1.00
14057;DHT22;7103;54.300;10.180;2023-10-19T07:13:21;9.80;1.00
14057;DHT22;7103;54.300;10.180;2023-10-19T07:15:48;9.70;1.00
14057;DHT22;7103;54.300;10.180;2023-10-19T07:18:18;9.70;1.00
14057;DHT22;7103;54.300;10.180;2023-10-19T07:20:45;9.70;1.00
14057;DHT22;7103;54.300;10.180;2023-10-19T07:23:15;9.80;1.00
14057;DHT22;7103;54.300;10.180;2023-10-19T07:25:49;9.80;1.00
14057;DHT22;7103;54.300;10.180;2023-10-19T07:28:22;9.80;1.00
14057;DHT22;7103;54.300;10.180;2023-10-19T07:30:53;9.90;1.00
14057;DHT22;7103;54.300;10.180;2023-10-19T07:33:20;9.80;1.00
14057;DHT22;7103;54.300;10.180;2023-10-19T07:35:48;9.80;1.00
14057;DHT22;7103;54.300;10.180;2023-10-19T07:38:20;9.90;1.00
14057;DHT22;7103;54.300;10.180;2023-10-19T07:40:49;9.90;1.00
14057;DHT22;7103;54.300;10.180;2023-10-19T07:43:16;9.90;1.00
14057;DHT22;7103;54.300;10.180;2023-10-19T07:45:43;9.90;1.00
14057;DHT22;7103;54.300;10.180;2023-10-19T07:48:10;9.90;1.00
14057;DHT22;7103;54.300;10.180;2023-10-19T07:50:40;9.90;1.00
14057;DHT22;7103;54.300;10.180;2023-10-19T07:53:10;9.90;1.00
14057;DHT22;7103;54.300;10.180;2023-10-19T07:55:37;10.00;1.00
14057;DHT22;7103;54.300;10.180;2023-10-19T07:58:06;10.00;1.00
14057;DHT22;7103;54.300;10.180;2023-10-19T08:00:33;10.10;1.00
14057;DHT22;7103;54.300;10.180;2023-10-19T08:03:02;10.00;1.00
14057;DHT22;7103;54.300;10.180;2023-10-19T08:05:30;10.10;1.00
14057;DHT22;7103;54.300;10.180;2023-10-19T08:07:58;10.10;1.00
14057;DHT22;7103;54.300;10.180;2023-10-19T08:10:27;10.10;1.00
14057;DHT22;7103;54.300;10.180;2023-10-19T08:12:56;10.10;1.00
14057;DHT22;7103;54.300;10.180;2023-10-19T08:15:23;10.10;1.00
14057;DHT22;7103;54.300;10.180;2023-10-19T08:17:51;10.10;1.00
14057;DHT22;7103;54.300;10.180;2023-10-19T08:20:21;10.10;1.00
14057;DHT22;7103;54.300;10.180;2023-10-19T08:22:59;10.10;1.00
14057;DHT22;7103;54.300;10.180;2023-10-19T08:25:28;10.10;1.00
14057;DHT22;7103;54.300;10.180;2023-10-19T08:28:17;10.20;1.00
14057;DHT22;7103;54.300;10.180;2023-10-19T08:30:44;10.20;1.00
14057;DHT22;7103;54.300;10.180;2023-10-19T08:33:24;10.20;1.00
14057;DHT22;7103;54.300;10.180;2023-10-19T08:35:54;10.20;1.00
14057;DHT22;7103;54.300;10.180;2023-10-19T08:38:22;10.20;1.00
14057;DHT22;7103;54.300;10.180;2023-10-19T08:40:50;10.10;1.00
14057;DHT22;7103;54.300;10.180;2023-10-19T08:43:21;10.10;1.00
14057;DHT22;7103;54.300;10.180;2023-10-19T08:45:48;10.20;1.00
14057;DHT22;7103;54.300;10.180;2023-10-19T08:48:16;10.20;1.00
14057;DHT22;7103;54.300;10.180;2023-10-19T08:50:44;10.20;1.00
14057;DHT22;7103;54.300;10.180;2023-10-19T08:53:13;10.10;1.00
14057;DHT22;7103;54.300;10.180;2023-10-19T08:55:46;10.10;1.00
14057;DHT22;7103;54.300;10.180;2023-10-19T08:58:17;10.10;1.00
14057;DHT22;7103;54.300;10.180;2023-10-19T09:00:49;10.10;1.00
14057;DHT22;7103;54.300;10.180;2023-10-19T09:03:24;10.10;1.00
14057;DHT22;7103;54.300;10.180;2023-10-19T09:05:53;10.20;1.00
14057;DHT22;7103;54.300;10.180;2023-10-19T09:08:21;10.10;1.00
14057;DHT22;7103;54.300;10.180;2023-10-19T09:10:50;10.00;1.00
14057;DHT22;7103;54.300;10.180;2023-10-19T09:13:20;10.00;1.00
14057;DHT22;7103;54.300;10.180;2023-10-19T09:15:50;10.00;1.00
14057;DHT22;7103;54.300;10.180;2023-10-19T09:18:23;10.00;1.00
14057;DHT22;7103;54.300;10.180;2023-10-19T09:20:52;9.90;1.00
14057;DHT22;7103;54.300;10.180;2023-10-19T09:23:20;9.90;1.00
14057;DHT22;7103;54.300;10.180;2023-10-19T09:25:51;9.90;1.00
14057;DHT22;7103;54.300;10.180;2023-10-19T09:28:22;9.90;1.00
14057;DHT22;7103;54.300;10.180;2023-10-19T09:30:51;10.00;1.00
14057;DHT22;7103;54.300;10.180;2023-10-19T09:33:20;10.00;1.00
14057;DHT22;7103;54.300;10.180;2023-10-19T09:35:50;10.00;1.00
14057;DHT22;7103;54.300;10.180;2023-10-19T09:38:20;10.00;1.00
14057;DHT22;7103;54.300;10.180;2023-10-19T09:40:55;9.90;1.00
14057;DHT22;7103;54.300;10.180;2023-10-19T09:43:34;10.00;1.00
14057;DHT22;7103;54.300;10.180;2023-10-19T09:46:06;10.00;1.00
14057;DHT22;7103;54.300;10.180;2023-10-19T09:48:42;10.00;1.00
14057;DHT22;7103;54.300;10.180;2023-10-19T09:51:09;10.10;1.00
14057;DHT22;7103;54.300;10.180;2023-10-19T09:53:42;10.20;1.00
14057;DHT22;7103;54.300;10.180;2023-10-19T09:56:15;10.10;1.00
14057;DHT22;7103;54.300;10.180;2023-10-19T09:58:57;10.20;1.00
14057;DHT22;7103;54.300;10.180;2023-10-19T10:01:28;10.10;1.00
14057;DHT22;7103;54.300;10.180;2023-10-19T10:03:55;10.10;1.00
14057;DHT22;7103;54.300;10.180;2023-10-19T10:06:30;10.00;1.00
14057;DHT22;7103;54.300;10.180;2023-10-19T10:09:06;10.10;1.00
14057;DHT22;7103;54.300;10.180;2023-10-19T10:11:40;10.20;1.00
14057;DHT22;7103;54.300;10.180;2023-10-19T10:14:26;10.20;1.00
14057;DHT22;7103;54.300;10.180;2023-10-19T10:17:03;10.20;1.00
14057;DHT22;7103;54.300;10.180;2023-10-19T10:19:30;10.20;1.00
14057;DHT22;7103;54.300;10.180;2023-10-19T10:22:07;10.20;1.00
14057;DHT22;7103;54.300;10.180;2023-10-19T10:24:41;10.20;1.00
14057;DHT22;7103;54.300;10.180;2023-10-19T10:27:07;10.10;1.00
14057;DHT22;7103;54.300;10.180;2023-10-19T10:29:36;10.10;1.00
14057;DHT22;7103;54.300;10.180;2023-10-19T10:32:03;10.10;1.00
14057;DHT22;7103;54.300;10.180;2023-10-19T10:37:10;10.20;1.00
14057;DHT22;7103;54.300;10.180;2023-10-19T10:39:38;10.20;1.00
14057;DHT22;7103;54.300;10.180;2023-10-19T10:42:09;10.10;1.00
14057;DHT22;7103;54.300;10.180;2023-10-19T10:44:42;10.10;1.00
14057;DHT22;7103;54.300;10.180;2023-10-19T10:47:16;10.10;1.00
14057;DHT22;7103;54.300;10.180;2023-10-19T10:50:00;10.10;1.00
14057;DHT22;7103;54.300;10.180;2023-10-19T10:52:35;10.20;1.00
14057;DHT22;7103;54.300;10.180;2023-10-19T10:55:15;10.30;1.00
14057;DHT22;7103;54.300;10.180;2023-10-19T10:57:43;10.30;1.00
14057;DHT22;7103;54.300;10.180;2023-10-19T11:00:13;10.20;1.00
14057;DHT22;7103;54.300;10.180;2023-10-19T11:02:45;10.20;1.00
14057;DHT22;7103;54.300;10.180;2023-10-19T11:05:17;10.20;1.00
14057;DHT22;7103;54.300;10.180;2023-10-19T11:08:07;10.10;1.00
14057;DHT22;7103;54.300;10.180;2023-10-19T11:10:36;10.20;1.00
14057;DHT22;7103;54.300;10.180;2023-10-19T11:13:09;10.10;1.00
14057;DHT22;7103;54.300;10.180;2023-10-19T11:15:37;10.10;1.00
14057;DHT22;7103;54.300;10.180;2023-10-19T11:18:05;10.00;1.00
14057;DHT22;7103;54.300;10.180;2023-10-19T11:20:36;10.10;1.00
14057;DHT22;7103;54.300;10.180;2023-10-19T11:23:03;10.10;1.00
14057;DHT22;7103;54.300;10.180;2023-10-19T11:25:30;10.10;1.00
14057;DHT22;7103;54.300;10.180;2023-10-19T11:28:00;10.00;1.00
14057;DHT22;7103;54.300;10.180;2023-10-19T11:30:29;10.10;1.00
14057;DHT22;7103;54.300;10.180;2023-10-19T11:32:58;10.10;1.00
14057;DHT22;7103;54.300;10.180;2023-10-19T11:35:30;10.10;1.00
14057;DHT22;7103;54.300;10.180;2023-10-19T11:38:00;10.20;1.00
14057;DHT22;7103;54.300;10.180;2023-10-19T11:40:29;10.20;1.00
14057;DHT22;7103;54.300;10.180;2023-10-19T11:42:56;10.10;1.00
14057;DHT22;7103;54.300;10.180;2023-10-19T11:45:23;10.10;1.00
14057;DHT22;7103;54.300;10.180;2023-10-19T11:47:50;10.10;1.00
14057;DHT22;7103;54.300;10.180;2023-10-19T11:50:18;10.10;1.00
14057;DHT22;7103;54.300;10.180;2023-10-19T11:52:46;10.10;1.00
14057;DHT22;7103;54.300;10.180;2023-10-19T11:55:14;10.20;1.00
14057;DHT22;7103;54.300;10.180;2023-10-19T11:57:44;10.10;1.00
14057;DHT22;7103;54.300;10.180;2023-10-19T12:00:12;10.10;1.00
14057;DHT22;7103;54.300;10.180;2023-10-19T12:02:49;10.10;1.00
14057;DHT22;7103;54.300;10.180;2023-10-19T12:05:16;10.20;1.00
14057;DHT22;7103;54.300;10.180;2023-10-19T12:07:44;10.20;1.00
14057;DHT22;7103;54.300;10.180;2023-10-19T12:10:12;10.20;1.00
14057;DHT22;7103;54.300;10.180;2023-10-19T12:12:39;10.20;1.00
14057;DHT22;7103;54.300;10.180;2023-10-19T12:15:09;10.20;1.00
14057;DHT22;7103;54.300;10.180;2023-10-19T12:17:39;10.20;1.00
14057;DHT22;7103;54.300;10.180;2023-10-19T12:20:06;10.20;1.00
14057;DHT22;7103;54.300;10.180;2023-10-19T12:22:33;10.20;1.00
14057;DHT22;7103;54.300;10.180;2023-10-19T12:25:06;10.20;1.00
14057;DHT22;7103;54.300;10.180;2023-10-19T12:27:33;10.10;1.00
14057;DHT22;7103;54.300;10.180;2023-10-19T12:30:00;10.10;1.00
14057;DHT22;7103;54.300;10.180;2023-10-19T12:32:28;10.10;1.00
14057;DHT22;7103;54.300;10.180;2023-10-19T12:34:56;10.10;1.00
14057;DHT22;7103;54.300;10.180;2023-10-19T12:37:24;10.10;1.00
14057;DHT22;7103;54.300;10.180;2023-10-19T12:39:51;10.10;1.00
14057;DHT22;7103;54.300;10.180;2023-10-19T12:42:18;10.10;1.00
14057;DHT22;7103;54.300;10.180;2023-10-19T12:44:45;10.10;1.00
14057;DHT22;7103;54.300;10.180;2023-10-19T12:47:14;10.00;1.00
14057;DHT22;7103;54.300;10.180;2023-10-19T12:49:42;10.00;1.00
14057;DHT22;7103;54.300;10.180;2023-10-19T12:52:12;9.90;1.00
14057;DHT22;7103;54.300;10.180;2023-10-19T12:54:38;9.90;1.00
14057;DHT22;7103;54.300;10.180;2023-10-19T12:57:06;10.00;1.00
14057;DHT22;7103;54.300;10.180;2023-10-19T12:59:36;9.90;1.00
14057;DHT22;7103;54.300;10.180;2023-10-19T13:02:06;9.90;1.00
14057;DHT22;7103;54.300;10.180;2023-10-19T13:04:36;9.90;1.00
14057;DHT22;7103;54.300;10.180;2023-10-19T13:07:03;9.90;1.00
14057;DHT22;7103;54.300;10.180;2023-10-19T13:09:32;9.90;1.00
14057;DHT22;7103;54.300;10.180;2023-10-19T13:12:02;9.90;1.00
14057;DHT22;7103;54.300;10.180;2023-10-19T13:14:34;9.90;1.00
14057;DHT22;7103;54.300;10.180;2023-10-19T13:17:02;9.90;1.00
14057;DHT22;7103;54.300;10.180;2023-10-19T13:19:29;9.90;1.00
14057;DHT22;7103;54.300;10.180;2023-10-19T13:21:56;9.90;1.00
14057;DHT22;7103;54.300;10.180;2023-10-19T13:24:25;9.90;1.00
14057;DHT22;7103;54.300;10.180;2023-10-19T13:26:54;10.00;1.00
14057;DHT22;7103;54.300;10.180;2023-10-19T13:29:21;9.90;1.00
14057;DHT22;7103;54.300;10.180;2023-10-19T13:31:50;9.90;1.00
14057;DHT22;7103;54.300;10.180;2023-10-19T13:34:19;10.00;1.00
14057;DHT22;7103;54.300;10.180;2023-10-19T13:36:46;9.90;1.00
14057;DHT22;7103;54.300;10.180;2023-10-19T13:39:13;9.90;1.00
14057;DHT22;7103;54.300;10.180;2023-10-19T13:41:43;9.90;1.00
14057;DHT22;7103;54.300;10.180;2023-10-19T13:44:11;9.90;1.00
14057;DHT22;7103;54.300;10.180;2023-10-19T13:46:38;9.80;1.00
14057;DHT22;7103;54.300;10.180;2023-10-19T13:49:06;9.90;1.00
14057;DHT22;7103;54.300;10.180;2023-10-19T13:51:33;9.90;1.00
14057;DHT22;7103;54.300;10.180;2023-10-19T13:54:00;9.90;1.00
14057;DHT22;7103;54.300;10.180;2023-10-19T13:56:27;9.90;1.00
14057;DHT22;7103;54.300;10.180;2023-10-19T13:58:54;9.90;1.00
14057;DHT22;7103;54.300;10.180;2023-10-19T14:01:21;9.90;1.00
14057;DHT22;7103;54.300;10.180;2023-10-19T14:03:53;9.90;1.00
14057;DHT22;7103;54.300;10.180;2023-10-19T14:06:22;9.90;1.00
14057;DHT22;7103;54.300;10.180;2023-10-19T14:08:51;9.90;1.00
14057;DHT22;7103;54.300;10.180;2023-10-19T14:11:18;9.90;1.00
14057;DHT22;7103;54.300;10.180;2023-10-19T14:13:45;10.00;1.00
14057;DHT22;7103;54.300;10.180;2023-10-19T14:16:12;9.90;1.00
14057;DHT22;7103;54.300;10.180;2023-10-19T14:18:39;10.00;1.00
14057;DHT22;7103;54.300;10.180;2023-10-19T14:21:17;9.90;1.00
14057;DHT22;7103;54.300;10.180;2023-10-19T14:23:46;10.00;1.00
14057;DHT22;7103;54.300;10.180;2023-10-19T14:26:14;10.00;1.00
14057;DHT22;7103;54.300;10.180;2023-10-19T14:28:42;10.00;1.00
14057;DHT22;7103;54.300;10.180;2023-10-19T14:31:09;10.20;1.00
14057;DHT22;7103;54.300;10.180;2023-10-19T14:33:37;10.10;1.00
14057;DHT22;7103;54.300;10.180;2023-10-19T14:36:05;10.20;1.00
14057;DHT22;7103;54.300;10.180;2023-10-19T14:38:32;10.10;1.00
14057;DHT22;7103;54.300;10.180;2023-10-19T14:40:59;10.10;1.00
14057;DHT22;7103;54.300;10.180;2023-10-19T14:43:26;10.10;1.00
14057;DHT22;7103;54.300;10.180;2023-10-19T14:45:55;10.10;1.00
14057;DHT22;7103;54.300;10.180;2023-10-19T14:48:26;10.10;1.00
14057;DHT22;7103;54.300;10.180;2023-10-19T14:50:56;10.10;1.00
14057;DHT22;7103;54.300;10.180;2023-10-19T14:53:24;10.00;1.00
14057;DHT22;7103;54.300;10.180;2023-10-19T14:55:52;10.00;1.00
14057;DHT22;7103;54.300;10.180;2023-10-19T14:58:19;10.10;1.00
14057;DHT22;7103;54.300;10.180;2023-10-19T15:00:46;10.10;1.00
14057;DHT22;7103;54.300;10.180;2023-10-19T15:03:21;10.10;1.00
14057;DHT22;7103;54.300;10.180;2023-10-19T15:05:51;10.00;1.00
14057;DHT22;7103;54.300;10.180;2023-10-19T15:08:19;10.00;1.00
14057;DHT22;7103;54.300;10.180;2023-10-19T15:10:46;10.00;1.00
14057;DHT22;7103;54.300;10.180;2023-10-19T15:13:13;10.00;1.00
14057;DHT22;7103;54.300;10.180;2023-10-19T15:15:42;10.00;1.00
14057;DHT22;7103;54.300;10.180;2023-10-19T15:18:09;9.90;1.00
14057;DHT22;7103;54.300;10.180;2023-10-19T15:20:36;10.00;1.00
14057;DHT22;7103;54.300;10.180;2023-10-19T15:23:03;9.90;1.00
14057;DHT22;7103;54.300;10.180;2023-10-19T15:25:31;9.90;1.00
14057;DHT22;7103;54.300;10.180;2023-10-19T15:27:58;9.90;1.00
14057;DHT22;7103;54.300;10.180;2023-10-19T15:30:25;9.90;1.00
14057;DHT22;7103;54.300;10.180;2023-10-19T15:32:52;9.90;1.00
14057;DHT22;7103;54.300;10.180;2023-10-19T15:35:20;10.00;1.00
14057;DHT22;7103;54.300;10.180;2023-10-19T15:37:50;10.00;1.00
14057;DHT22;7103;54.300;10.180;2023-10-19T15:40:22;9.90;1.00
14057;DHT22;7103;54.300;10.180;2023-10-19T15:42:49;9.90;1.00
14057;DHT22;7103;54.300;10.180;2023-10-19T15:45:16;9.90;1.00
14057;DHT22;7103;54.300;10.180;2023-10-19T15:47:46;9.80;1.00
14057;DHT22;7103;54.300;10.180;2023-10-19T15:50:14;9.90;1.00
14057;DHT22;7103;54.300;10.180;2023-10-19T15:52:41;9.70;1.00
14057;DHT22;7103;54.300;10.180;2023-10-19T15:55:13;9.80;1.00
14057;DHT22;7103;54.300;10.180;2023-10-19T15:57:41;9.80;1.00
14057;DHT22;7103;54.300;10.180;2023-10-19T16:00:10;9.80;1.00
14057;DHT22;7103;54.300;10.180;2023-10-19T16:02:42;9.80;1.00
14057;DHT22;7103;54.300;10.180;2023-10-19T16:05:10;9.80;1.00
14057;DHT22;7103;54.300;10.180;2023-10-19T16:07:43;9.80;1.00
14057;DHT22;7103;54.300;10.180;2023-10-19T16:10:10;9.80;1.00
14057;DHT22;7103;54.300;10.180;2023-10-19T16:12:40;9.80;1.00
14057;DHT22;7103;54.300;10.180;2023-10-19T16:15:09;9.70;1.00
14057;DHT22;7103;54.300;10.180;2023-10-19T16:17:36;9.80;1.00